sensor_id;sensor_type;location;lat;lon;timestamp;P1;durP1;ratioP1;P2;durP2;ratioP2
26594;SDS011;14238;49.496;8.154;2022-10-16T00:00:31;0.60;;;0.60;;
26594;SDS011;14238;49.496;8.154;2022-10-16T00:02:57;1.73;;;0.67;;
26594;SDS011;14238;49.496;8.154;2022-10-16T00:05:23;0.70;;;0.70;;
26594;SDS011;14238;49.496;8.154;2022-10-16T00:07:48;1.37;;;0.50;;
26594;SDS011;14238;49.496;8.154;2022-10-16T00:10:14;0.73;;;0.50;;
26594;SDS011;14238;49.496;8.154;2022-10-16T00:12:40;0.50;;;0.50;;
26594;SDS011;14238;49.496;8.154;2022-10-16T00:15:05;0.60;;;0.60;;
26594;SDS011;14238;49.496;8.154;2022-10-16T00:17:31;0.80;;;0.80;;
26594;SDS011;14238;49.496;8.154;2022-10-16T00:19:57;1.23;;;0.70;;
26594;SDS011;14238;49.496;8.154;2022-10-16T00:22:23;1.00;;;0.60;;
26594;SDS011;14238;49.496;8.154;2022-10-16T00:24:48;0.50;;;0.50;;
26594;SDS011;14238;49.496;8.154;2022-10-16T00:27:14;0.83;;;0.83;;
26594;SDS011;14238;49.496;8.154;2022-10-16T00:29:40;0.60;;;0.50;;
26594;SDS011;14238;49.496;8.154;2022-10-16T00:32:05;1.57;;;1.10;;
26594;SDS011;14238;49.496;8.154;2022-10-16T00:34:31;5.53;;;2.07;;
26594;SDS011;14238;49.496;8.154;2022-10-16T00:36:56;2.97;;;1.30;;
26594;SDS011;14238;49.496;8.154;2022-10-16T00:39:22;1.70;;;1.50;;
26594;SDS011;14238;49.496;8.154;2022-10-16T00:41:48;1.90;;;1.80;;
26594;SDS011;14238;49.496;8.154;2022-10-16T00:47:30;1.40;;;1.40;;
26594;SDS011;14238;49.496;8.154;2022-10-16T00:52:58;1.00;;;0.90;;
26594;SDS011;14238;49.496;8.154;2022-10-16T00:55:25;1.60;;;0.80;;
26594;SDS011;14238;49.496;8.154;2022-10-16T00:57:52;1.90;;;1.73;;
26594;SDS011;14238;49.496;8.154;2022-10-16T01:00:20;1.33;;;1.23;;
26594;SDS011;14238;49.496;8.154;2022-10-16T01:03:22;3.00;;;1.80;;
26594;SDS011;14238;49.496;8.154;2022-10-16T01:05:49;1.90;;;1.60;;
26594;SDS011;14238;49.496;8.154;2022-10-16T01:08:44;1.80;;;1.70;;
26594;SDS011;14238;49.496;8.154;2022-10-16T01:11:23;2.63;;;1.50;;
26594;SDS011;14238;49.496;8.154;2022-10-16T01:14:15;1.00;;;0.90;;
26594;SDS011;14238;49.496;8.154;2022-10-16T01:17:05;1.43;;;0.80;;
26594;SDS011;14238;49.496;8.154;2022-10-16T01:19:50;0.60;;;0.60;;
26594;SDS011;14238;49.496;8.154;2022-10-16T01:22:31;0.80;;;0.80;;
26594;SDS011;14238;49.496;8.154;2022-10-16T01:25:23;2.87;;;1.20;;
26594;SDS011;14238;49.496;8.154;2022-10-16T01:28:00;2.93;;;1.00;;
26594;SDS011;14238;49.496;8.154;2022-10-16T01:30:29;1.13;;;0.70;;
26594;SDS011;14238;49.496;8.154;2022-10-16T01:32:59;3.90;;;0.80;;
26594;SDS011;14238;49.496;8.154;2022-10-16T01:35:38;0.70;;;0.70;;
26594;SDS011;14238;49.496;8.154;2022-10-16T01:38:10;1.60;;;1.00;;
26594;SDS011;14238;49.496;8.154;2022-10-16T01:40:42;1.67;;;0.70;;
26594;SDS011;14238;49.496;8.154;2022-10-16T01:43:20;1.20;;;0.80;;
26594;SDS011;14238;49.496;8.154;2022-10-16T01:45:50;2.10;;;0.80;;
26594;SDS011;14238;49.496;8.154;2022-10-16T01:48:18;1.83;;;0.90;;
26594;SDS011;14238;49.496;8.154;2022-10-16T01:50:49;1.30;;;0.90;;
26594;SDS011;14238;49.496;8.154;2022-10-16T01:53:27;0.90;;;0.90;;
26594;SDS011;14238;49.496;8.154;2022-10-16T01:55:54;1.07;;;1.03;;
26594;SDS011;14238;49.496;8.154;2022-10-16T01:58:22;1.70;;;1.10;;
26594;SDS011;14238;49.496;8.154;2022-10-16T02:00:50;0.80;;;0.80;;
26594;SDS011;14238;49.496;8.154;2022-10-16T02:03:19;2.13;;;1.00;;
26594;SDS011;14238;49.496;8.154;2022-10-16T02:05:46;1.33;;;0.80;;
26594;SDS011;14238;49.496;8.154;2022-10-16T02:08:21;1.10;;;1.00;;
26594;SDS011;14238;49.496;8.154;2022-10-16T02:10:49;3.73;;;1.10;;
26594;SDS011;14238;49.496;8.154;2022-10-16T02:13:22;1.37;;;0.83;;
26594;SDS011;14238;49.496;8.154;2022-10-16T02:15:50;2.00;;;1.00;;
26594;SDS011;14238;49.496;8.154;2022-10-16T02:18:16;1.23;;;0.93;;
26594;SDS011;14238;49.496;8.154;2022-10-16T02:20:48;1.63;;;1.30;;
26594;SDS011;14238;49.496;8.154;2022-10-16T02:23:19;1.47;;;1.30;;
26594;SDS011;14238;49.496;8.154;2022-10-16T02:25:59;1.53;;;1.40;;
26594;SDS011;14238;49.496;8.154;2022-10-16T02:28:52;5.27;;;1.60;;
26594;SDS011;14238;49.496;8.154;2022-10-16T02:31:25;2.63;;;1.43;;
26594;SDS011;14238;49.496;8.154;2022-10-16T02:33:54;2.23;;;1.60;;
26594;SDS011;14238;49.496;8.154;2022-10-16T02:36:22;1.53;;;1.43;;
26594;SDS011;14238;49.496;8.154;2022-10-16T02:38:48;1.50;;;1.17;;
26594;SDS011;14238;49.496;8.154;2022-10-16T02:41:14;2.53;;;1.20;;
26594;SDS011;14238;49.496;8.154;2022-10-16T02:43:40;3.70;;;1.50;;
26594;SDS011;14238;49.496;8.154;2022-10-16T02:46:07;1.33;;;1.23;;
26594;SDS011;14238;49.496;8.154;2022-10-16T02:48:32;1.43;;;1.20;;
26594;SDS011;14238;49.496;8.154;2022-10-16T02:50:58;3.57;;;1.30;;
26594;SDS011;14238;49.496;8.154;2022-10-16T02:53:23;1.90;;;1.80;;
26594;SDS011;14238;49.496;8.154;2022-10-16T02:55:49;3.57;;;1.53;;
26594;SDS011;14238;49.496;8.154;2022-10-16T02:58:14;1.50;;;1.40;;
26594;SDS011;14238;49.496;8.154;2022-10-16T03:00:40;2.57;;;1.40;;
26594;SDS011;14238;49.496;8.154;2022-10-16T03:03:06;2.60;;;1.60;;
26594;SDS011;14238;49.496;8.154;2022-10-16T03:05:32;1.73;;;1.33;;
26594;SDS011;14238;49.496;8.154;2022-10-16T03:07:58;3.30;;;1.60;;
26594;SDS011;14238;49.496;8.154;2022-10-16T03:10:25;3.53;;;2.13;;
26594;SDS011;14238;49.496;8.154;2022-10-16T03:12:51;3.70;;;2.00;;
26594;SDS011;14238;49.496;8.154;2022-10-16T03:15:17;2.20;;;2.00;;
26594;SDS011;14238;49.496;8.154;2022-10-16T03:17:42;2.30;;;2.10;;
26594;SDS011;14238;49.496;8.154;2022-10-16T03:20:08;3.80;;;2.10;;
26594;SDS011;14238;49.496;8.154;2022-10-16T03:22:34;2.97;;;1.83;;
26594;SDS011;14238;49.496;8.154;2022-10-16T03:25:00;1.97;;;1.90;;
26594;SDS011;14238;49.496;8.154;2022-10-16T03:27:25;3.43;;;1.83;;
26594;SDS011;14238;49.496;8.154;2022-10-16T03:29:51;5.23;;;2.60;;
26594;SDS011;14238;49.496;8.154;2022-10-16T03:32:16;2.13;;;2.03;;
26594;SDS011;14238;49.496;8.154;2022-10-16T03:34:43;3.60;;;1.80;;
26594;SDS011;14238;49.496;8.154;2022-10-16T03:37:08;4.43;;;2.30;;
26594;SDS011;14238;49.496;8.154;2022-10-16T03:39:34;2.07;;;1.93;;
26594;SDS011;14238;49.496;8.154;2022-10-16T03:42:00;2.17;;;1.97;;
26594;SDS011;14238;49.496;8.154;2022-10-16T03:44:25;2.90;;;1.73;;
26594;SDS011;14238;49.496;8.154;2022-10-16T03:46:51;2.30;;;2.10;;
26594;SDS011;14238;49.496;8.154;2022-10-16T03:49:16;1.87;;;1.60;;
26594;SDS011;14238;49.496;8.154;2022-10-16T03:51:42;4.70;;;2.30;;
26594;SDS011;14238;49.496;8.154;2022-10-16T03:54:07;3.83;;;1.60;;
26594;SDS011;14238;49.496;8.154;2022-10-16T03:56:34;1.73;;;1.63;;
26594;SDS011;14238;49.496;8.154;2022-10-16T03:58:59;2.60;;;1.70;;
26594;SDS011;14238;49.496;8.154;2022-10-16T04:01:25;1.63;;;1.53;;
26594;SDS011;14238;49.496;8.154;2022-10-16T04:03:50;2.03;;;1.70;;
26594;SDS011;14238;49.496;8.154;2022-10-16T04:06:16;2.20;;;1.63;;
26594;SDS011;14238;49.496;8.154;2022-10-16T04:08:42;1.83;;;1.70;;
26594;SDS011;14238;49.496;8.154;2022-10-16T04:11:08;2.30;;;1.43;;
26594;SDS011;14238;49.496;8.154;2022-10-16T04:13:34;1.80;;;1.70;;
26594;SDS011;14238;49.496;8.154;2022-10-16T04:16:00;2.83;;;1.37;;
26594;SDS011;14238;49.496;8.154;2022-10-16T04:18:25;1.50;;;1.40;;
26594;SDS011;14238;49.496;8.154;2022-10-16T04:20:52;2.20;;;1.50;;
26594;SDS011;14238;49.496;8.154;2022-10-16T04:23:18;2.87;;;1.80;;
26594;SDS011;14238;49.496;8.154;2022-10-16T04:25:43;2.00;;;1.80;;
26594;SDS011;14238;49.496;8.154;2022-10-16T04:28:09;3.00;;;1.47;;
26594;SDS011;14238;49.496;8.154;2022-10-16T04:30:34;1.57;;;1.47;;
26594;SDS011;14238;49.496;8.154;2022-10-16T04:33:02;2.53;;;1.37;;
26594;SDS011;14238;49.496;8.154;2022-10-16T04:35:27;1.67;;;1.57;;
26594;SDS011;14238;49.496;8.154;2022-10-16T04:37:53;1.60;;;1.27;;
26594;SDS011;14238;49.496;8.154;2022-10-16T04:40:18;2.77;;;1.70;;
26594;SDS011;14238;49.496;8.154;2022-10-16T04:42:44;2.63;;;1.57;;
26594;SDS011;14238;49.496;8.154;2022-10-16T04:45:09;3.00;;;2.00;;
26594;SDS011;14238;49.496;8.154;2022-10-16T04:47:35;2.10;;;1.50;;
26594;SDS011;14238;49.496;8.154;2022-10-16T04:50:01;2.07;;;1.87;;
26594;SDS011;14238;49.496;8.154;2022-10-16T04:52:27;5.07;;;1.40;;
26594;SDS011;14238;49.496;8.154;2022-10-16T04:54:53;3.43;;;2.00;;
26594;SDS011;14238;49.496;8.154;2022-10-16T04:57:19;1.57;;;1.47;;
26594;SDS011;14238;49.496;8.154;2022-10-16T04:59:44;3.20;;;1.90;;
26594;SDS011;14238;49.496;8.154;2022-10-16T05:02:10;2.47;;;1.87;;
26594;SDS011;14238;49.496;8.154;2022-10-16T05:04:35;4.20;;;1.90;;
26594;SDS011;14238;49.496;8.154;2022-10-16T05:07:01;2.93;;;1.87;;
26594;SDS011;14238;49.496;8.154;2022-10-16T05:09:26;3.70;;;1.60;;
26594;SDS011;14238;49.496;8.154;2022-10-16T05:11:52;2.80;;;2.00;;
26594;SDS011;14238;49.496;8.154;2022-10-16T05:14:18;1.93;;;1.77;;
26594;SDS011;14238;49.496;8.154;2022-10-16T05:16:43;2.00;;;1.87;;
26594;SDS011;14238;49.496;8.154;2022-10-16T05:19:09;3.00;;;2.10;;
26594;SDS011;14238;49.496;8.154;2022-10-16T05:21:35;2.03;;;1.83;;
26594;SDS011;14238;49.496;8.154;2022-10-16T05:24:00;2.47;;;2.27;;
26594;SDS011;14238;49.496;8.154;2022-10-16T05:26:26;2.63;;;2.40;;
26594;SDS011;14238;49.496;8.154;2022-10-16T05:28:51;2.33;;;2.13;;
26594;SDS011;14238;49.496;8.154;2022-10-16T05:31:17;2.37;;;1.93;;
26594;SDS011;14238;49.496;8.154;2022-10-16T05:33:42;2.30;;;1.53;;
26594;SDS011;14238;49.496;8.154;2022-10-16T05:36:09;4.53;;;2.40;;
26594;SDS011;14238;49.496;8.154;2022-10-16T05:38:35;2.10;;;1.90;;
26594;SDS011;14238;49.496;8.154;2022-10-16T05:41:02;2.10;;;2.00;;
26594;SDS011;14238;49.496;8.154;2022-10-16T05:43:28;3.60;;;1.90;;
26594;SDS011;14238;49.496;8.154;2022-10-16T05:45:55;2.23;;;1.70;;
26594;SDS011;14238;49.496;8.154;2022-10-16T05:48:28;2.80;;;2.60;;
26594;SDS011;14238;49.496;8.154;2022-10-16T05:53:23;3.03;;;2.50;;
26594;SDS011;14238;49.496;8.154;2022-10-16T05:55:53;3.00;;;2.70;;
26594;SDS011;14238;49.496;8.154;2022-10-16T05:58:20;3.03;;;2.83;;
26594;SDS011;14238;49.496;8.154;2022-10-16T06:00:56;3.10;;;2.80;;
26594;SDS011;14238;49.496;8.154;2022-10-16T06:03:27;10.93;;;4.27;;
26594;SDS011;14238;49.496;8.154;2022-10-16T06:05:54;4.80;;;3.90;;
26594;SDS011;14238;49.496;8.154;2022-10-16T06:08:20;28.30;;;6.37;;
26594;SDS011;14238;49.496;8.154;2022-10-16T06:10:47;5.63;;;4.80;;
26594;SDS011;14238;49.496;8.154;2022-10-16T06:13:14;35.67;;;6.70;;
26594;SDS011;14238;49.496;8.154;2022-10-16T06:15:40;33.53;;;7.53;;
26594;SDS011;14238;49.496;8.154;2022-10-16T06:18:07;5.67;;;4.93;;
26594;SDS011;14238;49.496;8.154;2022-10-16T06:20:34;5.10;;;4.70;;
26594;SDS011;14238;49.496;8.154;2022-10-16T06:23:00;5.23;;;4.93;;
26594;SDS011;14238;49.496;8.154;2022-10-16T06:25:25;22.50;;;5.77;;
26594;SDS011;14238;49.496;8.154;2022-10-16T06:27:51;34.70;;;13.97;;
26594;SDS011;14238;49.496;8.154;2022-10-16T06:30:16;10.60;;;7.83;;
26594;SDS011;14238;49.496;8.154;2022-10-16T06:32:42;13.80;;;6.97;;
26594;SDS011;14238;49.496;8.154;2022-10-16T06:35:07;22.07;;;7.90;;
26594;SDS011;14238;49.496;8.154;2022-10-16T06:37:33;5.80;;;5.40;;
26594;SDS011;14238;49.496;8.154;2022-10-16T06:39:59;6.60;;;6.00;;
26594;SDS011;14238;49.496;8.154;2022-10-16T06:42:25;5.40;;;5.00;;
26594;SDS011;14238;49.496;8.154;2022-10-16T06:44:50;29.47;;;8.73;;
26594;SDS011;14238;49.496;8.154;2022-10-16T06:47:16;12.43;;;8.50;;
26594;SDS011;14238;49.496;8.154;2022-10-16T06:49:41;12.27;;;8.07;;
26594;SDS011;14238;49.496;8.154;2022-10-16T06:52:07;7.47;;;6.90;;
26594;SDS011;14238;49.496;8.154;2022-10-16T06:54:32;9.33;;;7.40;;
26594;SDS011;14238;49.496;8.154;2022-10-16T06:56:58;7.80;;;6.10;;
26594;SDS011;14238;49.496;8.154;2022-10-16T06:59:25;5.90;;;5.50;;
26594;SDS011;14238;49.496;8.154;2022-10-16T07:01:50;6.80;;;6.20;;
26594;SDS011;14238;49.496;8.154;2022-10-16T07:04:16;5.03;;;4.73;;
26594;SDS011;14238;49.496;8.154;2022-10-16T07:06:41;5.00;;;4.70;;
26594;SDS011;14238;49.496;8.154;2022-10-16T07:09:08;5.53;;;5.17;;
26594;SDS011;14238;49.496;8.154;2022-10-16T07:11:36;4.70;;;4.40;;
26594;SDS011;14238;49.496;8.154;2022-10-16T07:14:03;4.33;;;4.13;;
26594;SDS011;14238;49.496;8.154;2022-10-16T07:16:30;4.77;;;4.47;;
26594;SDS011;14238;49.496;8.154;2022-10-16T07:18:58;4.80;;;4.40;;
26594;SDS011;14238;49.496;8.154;2022-10-16T07:21:26;5.80;;;5.10;;
26594;SDS011;14238;49.496;8.154;2022-10-16T07:23:54;5.90;;;5.50;;
26594;SDS011;14238;49.496;8.154;2022-10-16T07:26:24;9.57;;;8.77;;
26594;SDS011;14238;49.496;8.154;2022-10-16T07:28:51;8.97;;;8.23;;
26594;SDS011;14238;49.496;8.154;2022-10-16T07:31:18;8.87;;;8.27;;
26594;SDS011;14238;49.496;8.154;2022-10-16T07:33:45;10.70;;;9.90;;
26594;SDS011;14238;49.496;8.154;2022-10-16T07:36:13;10.90;;;10.00;;
26594;SDS011;14238;49.496;8.154;2022-10-16T07:38:39;10.20;;;9.20;;
26594;SDS011;14238;49.496;8.154;2022-10-16T07:41:06;9.87;;;9.00;;
26594;SDS011;14238;49.496;8.154;2022-10-16T07:43:32;20.10;;;10.17;;
26594;SDS011;14238;49.496;8.154;2022-10-16T07:45:58;29.10;;;11.00;;
26594;SDS011;14238;49.496;8.154;2022-10-16T07:48:28;107.87;;;15.97;;
26594;SDS011;14238;49.496;8.154;2022-10-16T07:50:58;43.30;;;11.03;;
26594;SDS011;14238;49.496;8.154;2022-10-16T07:53:24;52.07;;;12.77;;
26594;SDS011;14238;49.496;8.154;2022-10-16T07:55:50;77.57;;;13.83;;
26594;SDS011;14238;49.496;8.154;2022-10-16T07:58:15;18.03;;;8.63;;
26594;SDS011;14238;49.496;8.154;2022-10-16T08:00:41;44.00;;;11.57;;
26594;SDS011;14238;49.496;8.154;2022-10-16T08:03:07;115.07;;;15.13;;
26594;SDS011;14238;49.496;8.154;2022-10-16T08:05:33;32.07;;;9.07;;
26594;SDS011;14238;49.496;8.154;2022-10-16T08:07:59;33.63;;;9.50;;
26594;SDS011;14238;49.496;8.154;2022-10-16T08:10:26;7.00;;;6.40;;
26594;SDS011;14238;49.496;8.154;2022-10-16T08:12:52;7.20;;;6.60;;
26594;SDS011;14238;49.496;8.154;2022-10-16T08:15:18;6.73;;;5.70;;
26594;SDS011;14238;49.496;8.154;2022-10-16T08:17:44;6.17;;;5.77;;
26594;SDS011;14238;49.496;8.154;2022-10-16T08:20:18;6.90;;;6.20;;
26594;SDS011;14238;49.496;8.154;2022-10-16T08:22:44;5.87;;;5.40;;
26594;SDS011;14238;49.496;8.154;2022-10-16T08:25:09;5.70;;;4.17;;
26594;SDS011;14238;49.496;8.154;2022-10-16T08:27:35;4.10;;;3.57;;
26594;SDS011;14238;49.496;8.154;2022-10-16T08:30:00;3.10;;;2.90;;
26594;SDS011;14238;49.496;8.154;2022-10-16T08:32:26;3.20;;;2.97;;
26594;SDS011;14238;49.496;8.154;2022-10-16T08:34:51;2.90;;;2.70;;
26594;SDS011;14238;49.496;8.154;2022-10-16T08:37:17;2.60;;;2.30;;
26594;SDS011;14238;49.496;8.154;2022-10-16T08:39:42;2.40;;;2.13;;
26594;SDS011;14238;49.496;8.154;2022-10-16T08:45:00;2.80;;;2.60;;
26594;SDS011;14238;49.496;8.154;2022-10-16T08:47:39;2.63;;;2.50;;
26594;SDS011;14238;49.496;8.154;2022-10-16T08:50:14;3.07;;;2.87;;
26594;SDS011;14238;49.496;8.154;2022-10-16T08:52:47;2.30;;;2.20;;
26594;SDS011;14238;49.496;8.154;2022-10-16T08:55:33;2.40;;;2.30;;
26594;SDS011;14238;49.496;8.154;2022-10-16T08:58:07;3.60;;;3.30;;
26594;SDS011;14238;49.496;8.154;2022-10-16T09:00:40;3.20;;;2.63;;
26594;SDS011;14238;49.496;8.154;2022-10-16T09:03:17;2.70;;;2.00;;
26594;SDS011;14238;49.496;8.154;2022-10-16T09:06:14;3.00;;;2.80;;
26594;SDS011;14238;49.496;8.154;2022-10-16T09:17:26;2.50;;;2.30;;
26594;SDS011;14238;49.496;8.154;2022-10-16T09:20:19;2.20;;;2.00;;
26594;SDS011;14238;49.496;8.154;2022-10-16T09:23:07;2.30;;;2.13;;
26594;SDS011;14238;49.496;8.154;2022-10-16T09:25:39;2.40;;;2.30;;
26594;SDS011;14238;49.496;8.154;2022-10-16T09:28:07;2.97;;;2.00;;
26594;SDS011;14238;49.496;8.154;2022-10-16T09:30:34;2.10;;;2.00;;
26594;SDS011;14238;49.496;8.154;2022-10-16T09:33:00;2.30;;;2.20;;
26594;SDS011;14238;49.496;8.154;2022-10-16T09:41:19;2.37;;;2.20;;
26594;SDS011;14238;49.496;8.154;2022-10-16T09:43:59;2.50;;;2.40;;
26594;SDS011;14238;49.496;8.154;2022-10-16T09:46:29;3.10;;;2.80;;
26594;SDS011;14238;49.496;8.154;2022-10-16T09:49:00;3.90;;;2.27;;
26594;SDS011;14238;49.496;8.154;2022-10-16T09:51:31;3.03;;;2.83;;
26594;SDS011;14238;49.496;8.154;2022-10-16T09:54:01;3.10;;;2.90;;
26594;SDS011;14238;49.496;8.154;2022-10-16T09:56:48;4.23;;;3.93;;
26594;SDS011;14238;49.496;8.154;2022-10-16T09:59:20;3.77;;;3.57;;
26594;SDS011;14238;49.496;8.154;2022-10-16T10:01:49;3.90;;;3.60;;
26594;SDS011;14238;49.496;8.154;2022-10-16T10:04:17;3.13;;;2.93;;
26594;SDS011;14238;49.496;8.154;2022-10-16T10:06:54;3.70;;;3.50;;
26594;SDS011;14238;49.496;8.154;2022-10-16T10:11:57;3.17;;;2.97;;
26594;SDS011;14238;49.496;8.154;2022-10-16T10:19:54;3.30;;;3.10;;
26594;SDS011;14238;49.496;8.154;2022-10-16T10:22:42;3.67;;;3.37;;
26594;SDS011;14238;49.496;8.154;2022-10-16T10:27:39;6.37;;;4.40;;
26594;SDS011;14238;49.496;8.154;2022-10-16T10:33:09;4.87;;;3.70;;
26594;SDS011;14238;49.496;8.154;2022-10-16T10:42:08;3.90;;;3.70;;
26594;SDS011;14238;49.496;8.154;2022-10-16T10:48:12;4.87;;;4.47;;
26594;SDS011;14238;49.496;8.154;2022-10-16T10:50:46;4.40;;;4.00;;
26594;SDS011;14238;49.496;8.154;2022-10-16T10:56:37;3.33;;;2.97;;
26594;SDS011;14238;49.496;8.154;2022-10-16T10:59:30;5.90;;;3.07;;
26594;SDS011;14238;49.496;8.154;2022-10-16T11:02:41;2.87;;;2.67;;
26594;SDS011;14238;49.496;8.154;2022-10-16T11:07:38;2.70;;;2.60;;
26594;SDS011;14238;49.496;8.154;2022-10-16T11:10:15;2.00;;;1.80;;
26594;SDS011;14238;49.496;8.154;2022-10-16T11:13:08;2.00;;;1.90;;
26594;SDS011;14238;49.496;8.154;2022-10-16T11:15:43;2.10;;;1.90;;
26594;SDS011;14238;49.496;8.154;2022-10-16T11:18:15;2.40;;;1.93;;
26594;SDS011;14238;49.496;8.154;2022-10-16T11:20:56;2.10;;;2.00;;
26594;SDS011;14238;49.496;8.154;2022-10-16T11:23:29;2.20;;;1.73;;
26594;SDS011;14238;49.496;8.154;2022-10-16T11:26:00;2.83;;;1.57;;
26594;SDS011;14238;49.496;8.154;2022-10-16T11:30:57;2.40;;;2.30;;
26594;SDS011;14238;49.496;8.154;2022-10-16T11:33:32;1.90;;;1.80;;
26594;SDS011;14238;49.496;8.154;2022-10-16T11:36:08;5.73;;;2.23;;
26594;SDS011;14238;49.496;8.154;2022-10-16T11:39:03;3.03;;;1.80;;
26594;SDS011;14238;49.496;8.154;2022-10-16T11:41:57;2.60;;;1.60;;
26594;SDS011;14238;49.496;8.154;2022-10-16T11:44:36;1.90;;;1.80;;
26594;SDS011;14238;49.496;8.154;2022-10-16T11:47:23;2.03;;;1.80;;
26594;SDS011;14238;49.496;8.154;2022-10-16T11:49:59;2.70;;;2.10;;
26594;SDS011;14238;49.496;8.154;2022-10-16T11:52:44;2.50;;;2.00;;
26594;SDS011;14238;49.496;8.154;2022-10-16T11:55:24;4.40;;;2.00;;
26594;SDS011;14238;49.496;8.154;2022-10-16T11:58:07;2.37;;;2.27;;
26594;SDS011;14238;49.496;8.154;2022-10-16T12:00:46;2.27;;;2.17;;
26594;SDS011;14238;49.496;8.154;2022-10-16T12:03:27;2.57;;;2.37;;
26594;SDS011;14238;49.496;8.154;2022-10-16T12:06:06;2.30;;;2.03;;
26594;SDS011;14238;49.496;8.154;2022-10-16T12:08:39;3.60;;;2.10;;
26594;SDS011;14238;49.496;8.154;2022-10-16T12:11:09;2.60;;;2.10;;
26594;SDS011;14238;49.496;8.154;2022-10-16T12:16:58;3.13;;;2.37;;
26594;SDS011;14238;49.496;8.154;2022-10-16T12:19:25;2.43;;;2.33;;
26594;SDS011;14238;49.496;8.154;2022-10-16T12:21:54;2.50;;;2.27;;
26594;SDS011;14238;49.496;8.154;2022-10-16T12:26:57;2.47;;;2.37;;
26594;SDS011;14238;49.496;8.154;2022-10-16T12:29:33;2.27;;;2.17;;
26594;SDS011;14238;49.496;8.154;2022-10-16T12:31:59;2.57;;;2.37;;
26594;SDS011;14238;49.496;8.154;2022-10-16T12:34:37;3.27;;;2.60;;
26594;SDS011;14238;49.496;8.154;2022-10-16T12:37:08;2.57;;;2.47;;
26594;SDS011;14238;49.496;8.154;2022-10-16T12:39:36;3.10;;;2.57;;
26594;SDS011;14238;49.496;8.154;2022-10-16T12:42:03;2.30;;;2.17;;
26594;SDS011;14238;49.496;8.154;2022-10-16T12:44:34;1.83;;;1.73;;
26594;SDS011;14238;49.496;8.154;2022-10-16T12:47:01;2.43;;;2.20;;
26594;SDS011;14238;49.496;8.154;2022-10-16T12:51:53;2.93;;;2.73;;
26594;SDS011;14238;49.496;8.154;2022-10-16T12:54:37;3.00;;;2.70;;
26594;SDS011;14238;49.496;8.154;2022-10-16T13:06:39;4.33;;;4.03;;
26594;SDS011;14238;49.496;8.154;2022-10-16T13:19:41;5.27;;;4.87;;
26594;SDS011;14238;49.496;8.154;2022-10-16T13:22:45;5.47;;;4.77;;
26594;SDS011;14238;49.496;8.154;2022-10-16T13:25:27;8.00;;;3.80;;
26594;SDS011;14238;49.496;8.154;2022-10-16T13:28:12;5.90;;;4.20;;
26594;SDS011;14238;49.496;8.154;2022-10-16T13:30:39;4.60;;;4.30;;
26594;SDS011;14238;49.496;8.154;2022-10-16T13:35:47;4.57;;;4.27;;
26594;SDS011;14238;49.496;8.154;2022-10-16T13:38:21;4.60;;;4.17;;
26594;SDS011;14238;49.496;8.154;2022-10-16T13:40:52;4.73;;;4.37;;
26594;SDS011;14238;49.496;8.154;2022-10-16T13:43:24;4.87;;;4.43;;
26594;SDS011;14238;49.496;8.154;2022-10-16T13:46:35;4.70;;;4.30;;
26594;SDS011;14238;49.496;8.154;2022-10-16T13:48:56;4.63;;;4.30;;
26594;SDS011;14238;49.496;8.154;2022-10-16T13:51:22;4.80;;;4.03;;
26594;SDS011;14238;49.496;8.154;2022-10-16T13:53:48;5.97;;;4.53;;
26594;SDS011;14238;49.496;8.154;2022-10-16T13:56:15;5.33;;;4.93;;
26594;SDS011;14238;49.496;8.154;2022-10-16T13:58:42;4.67;;;4.30;;
26594;SDS011;14238;49.496;8.154;2022-10-16T14:01:43;5.60;;;4.20;;
26594;SDS011;14238;49.496;8.154;2022-10-16T14:04:09;6.17;;;3.97;;
26594;SDS011;14238;49.496;8.154;2022-10-16T14:06:36;4.03;;;3.73;;
26594;SDS011;14238;49.496;8.154;2022-10-16T14:11:56;4.33;;;3.57;;
26594;SDS011;14238;49.496;8.154;2022-10-16T14:14:25;4.20;;;3.90;;
26594;SDS011;14238;49.496;8.154;2022-10-16T14:16:55;4.20;;;3.80;;
26594;SDS011;14238;49.496;8.154;2022-10-16T14:19:22;5.03;;;4.63;;
26594;SDS011;14238;49.496;8.154;2022-10-16T14:21:51;4.03;;;3.73;;
26594;SDS011;14238;49.496;8.154;2022-10-16T14:26:55;5.40;;;3.90;;
26594;SDS011;14238;49.496;8.154;2022-10-16T14:29:21;10.50;;;4.80;;
26594;SDS011;14238;49.496;8.154;2022-10-16T14:31:59;5.37;;;3.70;;
26594;SDS011;14238;49.496;8.154;2022-10-16T14:36:58;5.83;;;3.70;;
26594;SDS011;14238;49.496;8.154;2022-10-16T14:39:32;4.07;;;3.77;;
26594;SDS011;14238;49.496;8.154;2022-10-16T14:41:58;4.13;;;3.67;;
26594;SDS011;14238;49.496;8.154;2022-10-16T14:44:27;3.93;;;3.63;;
26594;SDS011;14238;49.496;8.154;2022-10-16T14:46:56;4.07;;;3.77;;
26594;SDS011;14238;49.496;8.154;2022-10-16T14:49:22;7.40;;;4.37;;
26594;SDS011;14238;49.496;8.154;2022-10-16T14:51:49;6.23;;;5.63;;
26594;SDS011;14238;49.496;8.154;2022-10-16T14:54:15;6.00;;;5.50;;
26594;SDS011;14238;49.496;8.154;2022-10-16T14:56:49;5.63;;;5.13;;
26594;SDS011;14238;49.496;8.154;2022-10-16T14:59:33;9.40;;;8.50;;
26594;SDS011;14238;49.496;8.154;2022-10-16T15:02:16;6.00;;;5.50;;
26594;SDS011;14238;49.496;8.154;2022-10-16T15:04:47;4.73;;;4.33;;
26594;SDS011;14238;49.496;8.154;2022-10-16T15:07:13;4.87;;;4.20;;
26594;SDS011;14238;49.496;8.154;2022-10-16T15:09:39;4.50;;;4.10;;
26594;SDS011;14238;49.496;8.154;2022-10-16T15:12:05;4.10;;;3.50;;
26594;SDS011;14238;49.496;8.154;2022-10-16T15:14:31;5.40;;;4.30;;
26594;SDS011;14238;49.496;8.154;2022-10-16T15:16:56;4.67;;;4.37;;
26594;SDS011;14238;49.496;8.154;2022-10-16T15:19:22;4.70;;;4.17;;
26594;SDS011;14238;49.496;8.154;2022-10-16T15:21:47;5.23;;;4.07;;
26594;SDS011;14238;49.496;8.154;2022-10-16T15:24:14;4.47;;;4.07;;
26594;SDS011;14238;49.496;8.154;2022-10-16T15:26:40;6.93;;;3.90;;
26594;SDS011;14238;49.496;8.154;2022-10-16T15:29:06;7.67;;;4.50;;
26594;SDS011;14238;49.496;8.154;2022-10-16T15:31:32;4.10;;;3.80;;
26594;SDS011;14238;49.496;8.154;2022-10-16T15:33:57;5.47;;;3.90;;
26594;SDS011;14238;49.496;8.154;2022-10-16T15:36:28;4.90;;;3.70;;
26594;SDS011;14238;49.496;8.154;2022-10-16T15:38:59;3.50;;;3.30;;
26594;SDS011;14238;49.496;8.154;2022-10-16T15:41:25;4.80;;;4.03;;
26594;SDS011;14238;49.496;8.154;2022-10-16T15:43:50;3.80;;;3.50;;
26594;SDS011;14238;49.496;8.154;2022-10-16T15:46:20;3.83;;;3.43;;
26594;SDS011;14238;49.496;8.154;2022-10-16T15:48:47;9.60;;;3.90;;
26594;SDS011;14238;49.496;8.154;2022-10-16T15:51:14;4.60;;;3.73;;
26594;SDS011;14238;49.496;8.154;2022-10-16T15:53:40;4.70;;;3.70;;
26594;SDS011;14238;49.496;8.154;2022-10-16T15:56:06;7.43;;;3.80;;
26594;SDS011;14238;49.496;8.154;2022-10-16T15:58:33;4.40;;;4.00;;
26594;SDS011;14238;49.496;8.154;2022-10-16T16:00:59;4.57;;;3.40;;
26594;SDS011;14238;49.496;8.154;2022-10-16T16:03:26;9.40;;;3.70;;
26594;SDS011;14238;49.496;8.154;2022-10-16T16:05:53;6.70;;;4.17;;
26594;SDS011;14238;49.496;8.154;2022-10-16T16:08:19;7.30;;;3.67;;
26594;SDS011;14238;49.496;8.154;2022-10-16T16:10:45;4.20;;;3.10;;
26594;SDS011;14238;49.496;8.154;2022-10-16T16:13:11;5.47;;;3.40;;
26594;SDS011;14238;49.496;8.154;2022-10-16T16:15:39;7.60;;;3.97;;
26594;SDS011;14238;49.496;8.154;2022-10-16T16:18:05;4.70;;;3.47;;
26594;SDS011;14238;49.496;8.154;2022-10-16T16:20:31;6.07;;;4.33;;
26594;SDS011;14238;49.496;8.154;2022-10-16T16:22:57;5.03;;;3.63;;
26594;SDS011;14238;49.496;8.154;2022-10-16T16:25:22;4.27;;;3.63;;
26594;SDS011;14238;49.496;8.154;2022-10-16T16:27:48;6.00;;;4.10;;
26594;SDS011;14238;49.496;8.154;2022-10-16T16:30:14;8.67;;;4.17;;
26594;SDS011;14238;49.496;8.154;2022-10-16T16:32:39;8.33;;;4.07;;
26594;SDS011;14238;49.496;8.154;2022-10-16T16:35:05;5.80;;;4.10;;
26594;SDS011;14238;49.496;8.154;2022-10-16T16:37:31;7.30;;;5.20;;